sensor_id;sensor_type;location;lat;lon;timestamp;temperature;humidity
10566;DHT22;5331;48.148;16.326;2023-10-19T00:02:23;8.40;1.00
10566;DHT22;5331;48.148;16.326;2023-10-19T00:04:50;8.50;1.00
10566;DHT22;5331;48.148;16.326;2023-10-19T00:25:01;8.70;1.00
10566;DHT22;5331;48.148;16.326;2023-10-19T00:27:29;8.70;1.00
10566;DHT22;5331;48.148;16.326;2023-10-19T00:29:55;8.50;1.00
10566;DHT22;5331;48.148;16.326;2023-10-19T00:32:31;8.50;1.00
10566;DHT22;5331;48.148;16.326;2023-10-19T00:34:57;8.50;1.00
10566;DHT22;5331;48.148;16.326;2023-10-19T00:37:30;8.60;1.00
10566;DHT22;5331;48.148;16.326;2023-10-19T00:39:58;8.50;1.00
10566;DHT22;5331;48.148;16.326;2023-10-19T01:00:31;8.70;1.00
10566;DHT22;5331;48.148;16.326;2023-10-19T01:03:00;8.70;1.00
10566;DHT22;5331;48.148;16.326;2023-10-19T01:05:30;8.80;1.00
10566;DHT22;5331;48.148;16.326;2023-10-19T01:08:01;8.80;1.00
10566;DHT22;5331;48.148;16.326;2023-10-19T01:10:28;8.80;1.00
10566;DHT22;5331;48.148;16.326;2023-10-19T01:12:55;8.80;1.00
10566;DHT22;5331;48.148;16.326;2023-10-19T01:15:24;8.90;1.00
10566;DHT22;5331;48.148;16.326;2023-10-19T01:31:02;9.20;1.00
10566;DHT22;5331;48.148;16.326;2023-10-19T01:33:31;9.10;1.00
10566;DHT22;5331;48.148;16.326;2023-10-19T01:35:59;9.10;1.00
10566;DHT22;5331;48.148;16.326;2023-10-19T01:38:38;9.20;1.00
10566;DHT22;5331;48.148;16.326;2023-10-19T01:41:05;9.20;1.00
10566;DHT22;5331;48.148;16.326;2023-10-19T01:43:37;9.20;1.00
10566;DHT22;5331;48.148;16.326;2023-10-19T01:46:06;9.10;1.00
10566;DHT22;5331;48.148;16.326;2023-10-19T02:06:30;9.60;1.00
10566;DHT22;5331;48.148;16.326;2023-10-19T02:09:04;9.40;1.00
10566;DHT22;5331;48.148;16.326;2023-10-19T02:11:35;9.40;1.00
10566;DHT22;5331;48.148;16.326;2023-10-19T02:14:03;9.40;1.00
10566;DHT22;5331;48.148;16.326;2023-10-19T02:16:38;9.30;1.00
10566;DHT22;5331;48.148;16.326;2023-10-19T02:19:04;9.30;1.00
10566;DHT22;5331;48.148;16.326;2023-10-19T02:21:31;9.30;1.00
10566;DHT22;5331;48.148;16.326;2023-10-19T02:52:10;9.40;1.00
10566;DHT22;5331;48.148;16.326;2023-10-19T02:54:39;9.20;1.00
10566;DHT22;5331;48.148;16.326;2023-10-19T02:57:05;9.10;1.00
10566;DHT22;5331;48.148;16.326;2023-10-19T02:59:32;9.00;1.00
10566;DHT22;5331;48.148;16.326;2023-10-19T03:02:00;8.90;1.00
10566;DHT22;5331;48.148;16.326;2023-10-19T03:04:27;8.80;1.00
10566;DHT22;5331;48.148;16.326;2023-10-19T03:06:54;8.80;1.00
10566;DHT22;5331;48.148;16.326;2023-10-19T03:24:48;8.50;1.00
10566;DHT22;5331;48.148;16.326;2023-10-19T03:27:23;8.50;1.00
10566;DHT22;5331;48.148;16.326;2023-10-19T03:29:51;8.40;1.00
10566;DHT22;5331;48.148;16.326;2023-10-19T03:32:20;8.40;1.00
10566;DHT22;5331;48.148;16.326;2023-10-19T03:34:47;8.30;1.00
10566;DHT22;5331;48.148;16.326;2023-10-19T03:37:20;8.20;1.00
10566;DHT22;5331;48.148;16.326;2023-10-19T03:39:48;8.10;1.00
10566;DHT22;5331;48.148;16.326;2023-10-19T03:55:37;8.10;1.00
10566;DHT22;5331;48.148;16.326;2023-10-19T03:58:04;8.00;1.00
10566;DHT22;5331;48.148;16.326;2023-10-19T04:00:30;7.90;1.00
10566;DHT22;5331;48.148;16.326;2023-10-19T04:02:58;7.80;1.00
10566;DHT22;5331;48.148;16.326;2023-10-19T04:05:25;7.80;1.00
10566;DHT22;5331;48.148;16.326;2023-10-19T04:07:53;7.70;1.00
10566;DHT22;5331;48.148;16.326;2023-10-19T04:10:21;7.70;1.00
10566;DHT22;5331;48.148;16.326;2023-10-19T04:30:56;7.50;1.00
10566;DHT22;5331;48.148;16.326;2023-10-19T04:33:28;7.50;1.00
10566;DHT22;5331;48.148;16.326;2023-10-19T04:35:54;7.50;1.00
10566;DHT22;5331;48.148;16.326;2023-10-19T04:38:22;7.50;1.00
10566;DHT22;5331;48.148;16.326;2023-10-19T04:40:48;7.50;1.00
10566;DHT22;5331;48.148;16.326;2023-10-19T04:43:14;7.50;1.00
10566;DHT22;5331;48.148;16.326;2023-10-19T04:45:42;7.50;1.00
10566;DHT22;5331;48.148;16.326;2023-10-19T05:01:13;7.90;1.00
10566;DHT22;5331;48.148;16.326;2023-10-19T05:03:40;7.80;1.00
10566;DHT22;5331;48.148;16.326;2023-10-19T05:06:07;7.80;1.00
10566;DHT22;5331;48.148;16.326;2023-10-19T05:08:35;7.80;1.00
10566;DHT22;5331;48.148;16.326;2023-10-19T05:11:02;7.90;1.00
10566;DHT22;5331;48.148;16.326;2023-10-19T05:13:30;7.90;1.00
10566;DHT22;5331;48.148;16.326;2023-10-19T05:15:57;7.90;1.00
10566;DHT22;5331;48.148;16.326;2023-10-19T05:18:25;7.90;1.00
10566;DHT22;5331;48.148;16.326;2023-10-19T05:34:02;8.30;1.00
10566;DHT22;5331;48.148;16.326;2023-10-19T05:36:29;8.30;1.00
10566;DHT22;5331;48.148;16.326;2023-10-19T05:38:57;8.30;1.00
10566;DHT22;5331;48.148;16.326;2023-10-19T05:41:24;8.40;1.00
10566;DHT22;5331;48.148;16.326;2023-10-19T05:43:50;8.50;1.00
10566;DHT22;5331;48.148;16.326;2023-10-19T05:46:16;8.50;1.00
10566;DHT22;5331;48.148;16.326;2023-10-19T05:48:46;8.60;1.00
10566;DHT22;5331;48.148;16.326;2023-10-19T06:04:41;8.90;1.00
10566;DHT22;5331;48.148;16.326;2023-10-19T06:07:08;8.90;1.00
10566;DHT22;5331;48.148;16.326;2023-10-19T06:09:35;9.00;1.00
10566;DHT22;5331;48.148;16.326;2023-10-19T06:12:01;9.10;1.00
10566;DHT22;5331;48.148;16.326;2023-10-19T06:14:28;9.10;1.00
10566;DHT22;5331;48.148;16.326;2023-10-19T06:16:55;9.10;1.00
10566;DHT22;5331;48.148;16.326;2023-10-19T06:19:22;9.20;1.00
10566;DHT22;5331;48.148;16.326;2023-10-19T06:21:50;9.30;1.00
10566;DHT22;5331;48.148;16.326;2023-10-19T06:38:22;10.10;1.00
10566;DHT22;5331;48.148;16.326;2023-10-19T06:40:49;10.10;1.00
10566;DHT22;5331;48.148;16.326;2023-10-19T06:43:17;10.10;1.00
10566;DHT22;5331;48.148;16.326;2023-10-19T06:45:44;10.10;1.00
10566;DHT22;5331;48.148;16.326;2023-10-19T06:48:10;10.10;1.00
10566;DHT22;5331;48.148;16.326;2023-10-19T06:50:37;10.10;1.00
10566;DHT22;5331;48.148;16.326;2023-10-19T06:53:03;10.10;1.00
10566;DHT22;5331;48.148;16.326;2023-10-19T07:13:22;10.50;1.00
10566;DHT22;5331;48.148;16.326;2023-10-19T07:15:49;10.50;1.00
10566;DHT22;5331;48.148;16.326;2023-10-19T07:18:15;10.50;1.00
10566;DHT22;5331;48.148;16.326;2023-10-19T07:20:41;10.50;1.00
10566;DHT22;5331;48.148;16.326;2023-10-19T07:23:08;10.70;1.00
10566;DHT22;5331;48.148;16.326;2023-10-19T07:25:36;10.60;1.00
10566;DHT22;5331;48.148;16.326;2023-10-19T07:28:08;10.70;1.00
10566;DHT22;5331;48.148;16.326;2023-10-19T07:49:38;10.70;1.00
10566;DHT22;5331;48.148;16.326;2023-10-19T07:52:04;10.80;1.00
10566;DHT22;5331;48.148;16.326;2023-10-19T07:54:32;10.80;1.00
10566;DHT22;5331;48.148;16.326;2023-10-19T07:56:58;10.80;1.00
10566;DHT22;5331;48.148;16.326;2023-10-19T07:59:28;10.90;1.00
10566;DHT22;5331;48.148;16.326;2023-10-19T08:01:55;10.90;1.00
10566;DHT22;5331;48.148;16.326;2023-10-19T08:04:21;10.90;1.00
10566;DHT22;5331;48.148;16.326;2023-10-19T08:06:48;11.00;1.00
10566;DHT22;5331;48.148;16.326;2023-10-19T08:27:07;11.20;1.00
10566;DHT22;5331;48.148;16.326;2023-10-19T08:29:33;11.30;1.00
10566;DHT22;5331;48.148;16.326;2023-10-19T08:32:01;11.30;1.00
10566;DHT22;5331;48.148;16.326;2023-10-19T08:34:27;11.40;1.00
10566;DHT22;5331;48.148;16.326;2023-10-19T08:36:55;11.50;1.00
10566;DHT22;5331;48.148;16.326;2023-10-19T08:39:21;11.50;1.00
10566;DHT22;5331;48.148;16.326;2023-10-19T08:41:50;11.50;1.00
10566;DHT22;5331;48.148;16.326;2023-10-19T08:44:20;11.60;1.00
10566;DHT22;5331;48.148;16.326;2023-10-19T09:00:13;11.80;1.00
10566;DHT22;5331;48.148;16.326;2023-10-19T09:02:43;11.80;1.00
10566;DHT22;5331;48.148;16.326;2023-10-19T09:05:09;11.90;1.00
10566;DHT22;5331;48.148;16.326;2023-10-19T09:07:45;11.90;1.00
10566;DHT22;5331;48.148;16.326;2023-10-19T09:10:16;11.90;1.00
10566;DHT22;5331;48.148;16.326;2023-10-19T09:12:42;11.90;1.00
10566;DHT22;5331;48.148;16.326;2023-10-19T09:15:21;12.00;1.00
10566;DHT22;5331;48.148;16.326;2023-10-19T09:17:47;12.00;1.00
10566;DHT22;5331;48.148;16.326;2023-10-19T09:35:41;12.70;1.00
10566;DHT22;5331;48.148;16.326;2023-10-19T09:38:09;12.60;1.00
10566;DHT22;5331;48.148;16.326;2023-10-19T09:40:35;12.70;1.00
10566;DHT22;5331;48.148;16.326;2023-10-19T09:43:04;12.70;1.00
10566;DHT22;5331;48.148;16.326;2023-10-19T09:45:37;12.70;1.00
10566;DHT22;5331;48.148;16.326;2023-10-19T09:48:08;12.80;1.00
10566;DHT22;5331;48.148;16.326;2023-10-19T09:50:34;12.80;1.00
10566;DHT22;5331;48.148;16.326;2023-10-19T10:06:04;13.90;1.00
10566;DHT22;5331;48.148;16.326;2023-10-19T10:08:31;13.80;1.00
10566;DHT22;5331;48.148;16.326;2023-10-19T10:10:58;13.70;1.00
10566;DHT22;5331;48.148;16.326;2023-10-19T10:13:36;13.60;1.00
10566;DHT22;5331;48.148;16.326;2023-10-19T10:16:03;13.60;1.00
10566;DHT22;5331;48.148;16.326;2023-10-19T10:18:31;13.70;1.00
10566;DHT22;5331;48.148;16.326;2023-10-19T10:21:05;13.80;1.00
10566;DHT22;5331;48.148;16.326;2023-10-19T10:23:42;14.00;1.00
10566;DHT22;5331;48.148;16.326;2023-10-19T10:41:36;14.20;1.00
10566;DHT22;5331;48.148;16.326;2023-10-19T10:44:03;14.20;1.00
10566;DHT22;5331;48.148;16.326;2023-10-19T10:46:29;14.20;1.00
10566;DHT22;5331;48.148;16.326;2023-10-19T10:48:55;14.30;1.00
10566;DHT22;5331;48.148;16.326;2023-10-19T10:51:23;14.30;1.00
10566;DHT22;5331;48.148;16.326;2023-10-19T10:53:50;14.40;1.00
10566;DHT22;5331;48.148;16.326;2023-10-19T10:56:18;14.50;1.00
10566;DHT22;5331;48.148;16.326;2023-10-19T11:17:43;15.80;1.00
10566;DHT22;5331;48.148;16.326;2023-10-19T11:20:21;15.80;1.00
10566;DHT22;5331;48.148;16.326;2023-10-19T11:22:51;15.80;1.00
10566;DHT22;5331;48.148;16.326;2023-10-19T11:25:19;15.80;1.00
10566;DHT22;5331;48.148;16.326;2023-10-19T11:27:46;15.90;1.00
10566;DHT22;5331;48.148;16.326;2023-10-19T11:30:13;15.90;1.00
10566;DHT22;5331;48.148;16.326;2023-10-19T11:32:40;15.90;1.00
10566;DHT22;5331;48.148;16.326;2023-10-19T11:35:08;15.90;1.00
10566;DHT22;5331;48.148;16.326;2023-10-19T11:55:22;16.70;1.00
10566;DHT22;5331;48.148;16.326;2023-10-19T11:57:48;16.50;1.00
10566;DHT22;5331;48.148;16.326;2023-10-19T12:00:15;16.40;1.00
10566;DHT22;5331;48.148;16.326;2023-10-19T12:02:47;16.40;1.00
10566;DHT22;5331;48.148;16.326;2023-10-19T12:05:14;16.40;1.00
10566;DHT22;5331;48.148;16.326;2023-10-19T12:07:40;16.40;1.00
10566;DHT22;5331;48.148;16.326;2023-10-19T12:10:09;16.40;1.00
10566;DHT22;5331;48.148;16.326;2023-10-19T12:26:27;16.50;1.00
10566;DHT22;5331;48.148;16.326;2023-10-19T12:28:55;16.40;1.00
10566;DHT22;5331;48.148;16.326;2023-10-19T12:31:23;16.50;1.00
10566;DHT22;5331;48.148;16.326;2023-10-19T12:33:50;16.50;1.00
10566;DHT22;5331;48.148;16.326;2023-10-19T12:36:17;16.40;1.00
10566;DHT22;5331;48.148;16.326;2023-10-19T12:38:57;16.50;1.00
10566;DHT22;5331;48.148;16.326;2023-10-19T12:41:24;16.40;1.00
10566;DHT22;5331;48.148;16.326;2023-10-19T12:57:04;16.60;1.00
10566;DHT22;5331;48.148;16.326;2023-10-19T12:59:33;16.60;1.00
10566;DHT22;5331;48.148;16.326;2023-10-19T13:01:59;16.50;1.00
10566;DHT22;5331;48.148;16.326;2023-10-19T13:04:28;16.60;1.00
10566;DHT22;5331;48.148;16.326;2023-10-19T13:06:56;16.80;1.00
10566;DHT22;5331;48.148;16.326;2023-10-19T13:09:24;16.90;1.00
10566;DHT22;5331;48.148;16.326;2023-10-19T13:11:56;17.10;1.00
10566;DHT22;5331;48.148;16.326;2023-10-19T13:32:04;17.20;1.00
10566;DHT22;5331;48.148;16.326;2023-10-19T13:34:31;17.00;1.00
10566;DHT22;5331;48.148;16.326;2023-10-19T13:36:58;16.90;1.00
10566;DHT22;5331;48.148;16.326;2023-10-19T13:39:24;16.70;1.00
10566;DHT22;5331;48.148;16.326;2023-10-19T13:41:50;16.60;1.00
10566;DHT22;5331;48.148;16.326;2023-10-19T13:44:18;16.50;1.00
10566;DHT22;5331;48.148;16.326;2023-10-19T13:46:46;16.50;1.00
10566;DHT22;5331;48.148;16.326;2023-10-19T14:02:12;16.70;1.00
10566;DHT22;5331;48.148;16.326;2023-10-19T14:04:39;16.50;1.00
10566;DHT22;5331;48.148;16.326;2023-10-19T14:07:05;16.50;1.00
10566;DHT22;5331;48.148;16.326;2023-10-19T14:09:32;16.40;1.00
10566;DHT22;5331;48.148;16.326;2023-10-19T14:11:58;16.40;1.00
10566;DHT22;5331;48.148;16.326;2023-10-19T14:14:24;16.50;1.00
10566;DHT22;5331;48.148;16.326;2023-10-19T14:16:50;16.50;1.00
10566;DHT22;5331;48.148;16.326;2023-10-19T14:34:44;16.80;1.00
10566;DHT22;5331;48.148;16.326;2023-10-19T14:37:14;16.70;1.00
10566;DHT22;5331;48.148;16.326;2023-10-19T14:39:40;16.70;1.00
10566;DHT22;5331;48.148;16.326;2023-10-19T14:42:06;16.60;1.00
10566;DHT22;5331;48.148;16.326;2023-10-19T14:44:34;16.60;1.00
10566;DHT22;5331;48.148;16.326;2023-10-19T14:47:00;16.60;1.00
10566;DHT22;5331;48.148;16.326;2023-10-19T14:49:28;16.50;1.00
10566;DHT22;5331;48.148;16.326;2023-10-19T15:05:08;16.40;1.00
10566;DHT22;5331;48.148;16.326;2023-10-19T15:07:34;16.20;1.00
10566;DHT22;5331;48.148;16.326;2023-10-19T15:10:02;16.20;1.00
10566;DHT22;5331;48.148;16.326;2023-10-19T15:12:30;16.20;1.00
10566;DHT22;5331;48.148;16.326;2023-10-19T15:14:56;16.10;1.00
10566;DHT22;5331;48.148;16.326;2023-10-19T15:17:24;16.00;1.00
10566;DHT22;5331;48.148;16.326;2023-10-19T15:19:51;15.90;1.00
10566;DHT22;5331;48.148;16.326;2023-10-19T15:36:05;16.00;1.00
10566;DHT22;5331;48.148;16.326;2023-10-19T15:38:32;15.80;1.00
10566;DHT22;5331;48.148;16.326;2023-10-19T15:41:00;15.70;1.00
10566;DHT22;5331;48.148;16.326;2023-10-19T15:43:26;15.70;1.00
10566;DHT22;5331;48.148;16.326;2023-10-19T15:45:57;15.60;1.00
10566;DHT22;5331;48.148;16.326;2023-10-19T15:48:28;15.60;1.00
10566;DHT22;5331;48.148;16.326;2023-10-19T15:50:54;15.50;1.00
10566;DHT22;5331;48.148;16.326;2023-10-19T16:06:23;15.10;1.00
10566;DHT22;5331;48.148;16.326;2023-10-19T16:08:50;14.90;1.00
10566;DHT22;5331;48.148;16.326;2023-10-19T16:11:18;14.80;1.00
10566;DHT22;5331;48.148;16.326;2023-10-19T16:13:44;14.60;1.00
10566;DHT22;5331;48.148;16.326;2023-10-19T16:16:11;14.50;1.00
10566;DHT22;5331;48.148;16.326;2023-10-19T16:18:38;14.40;1.00
10566;DHT22;5331;48.148;16.326;2023-10-19T16:21:06;14.40;1.00
10566;DHT22;5331;48.148;16.326;2023-10-19T16:23:38;14.30;1.00
10566;DHT22;5331;48.148;16.326;2023-10-19T16:41:31;14.10;1.00
10566;DHT22;5331;48.148;16.326;2023-10-19T16:43:58;13.50;1.00
10566;DHT22;5331;48.148;16.326;2023-10-19T16:46:26;13.40;1.00
10566;DHT22;5331;48.148;16.326;2023-10-19T16:48:55;13.40;1.00
10566;DHT22;5331;48.148;16.326;2023-10-19T16:51:23;13.30;1.00
10566;DHT22;5331;48.148;16.326;2023-10-19T16:53:51;13.30;1.00
10566;DHT22;5331;48.148;16.326;2023-10-19T16:56:20;13.30;1.00
10566;DHT22;5331;48.148;16.326;2023-10-19T17:16:06;12.90;1.00
10566;DHT22;5331;48.148;16.326;2023-10-19T17:18:34;12.80;1.00
10566;DHT22;5331;48.148;16.326;2023-10-19T17:21:02;12.70;1.00
10566;DHT22;5331;48.148;16.326;2023-10-19T17:23:31;12.70;1.00
10566;DHT22;5331;48.148;16.326;2023-10-19T17:26:00;12.70;1.00
10566;DHT22;5331;48.148;16.326;2023-10-19T17:28:28;12.70;1.00
10566;DHT22;5331;48.148;16.326;2023-10-19T17:30:57;12.70;1.00
10566;DHT22;5331;48.148;16.326;2023-10-19T17:48:55;12.80;1.00
10566;DHT22;5331;48.148;16.326;2023-10-19T17:51:26;12.60;1.00
10566;DHT22;5331;48.148;16.326;2023-10-19T17:53:55;12.50;1.00
10566;DHT22;5331;48.148;16.326;2023-10-19T17:56:25;12.40;1.00
10566;DHT22;5331;48.148;16.326;2023-10-19T17:58:53;12.40;1.00
10566;DHT22;5331;48.148;16.326;2023-10-19T18:01:25;12.40;1.00
10566;DHT22;5331;48.148;16.326;2023-10-19T18:03:57;12.30;1.00
10566;DHT22;5331;48.148;16.326;2023-10-19T18:06:30;12.30;1.00
10566;DHT22;5331;48.148;16.326;2023-10-19T18:24:26;12.30;1.00
10566;DHT22;5331;48.148;16.326;2023-10-19T18:26:58;12.20;1.00
10566;DHT22;5331;48.148;16.326;2023-10-19T18:29:29;12.20;1.00
10566;DHT22;5331;48.148;16.326;2023-10-19T18:32:01;12.10;1.00
10566;DHT22;5331;48.148;16.326;2023-10-19T18:34:30;12.10;1.00
10566;DHT22;5331;48.148;16.326;2023-10-19T18:37:01;12.00;1.00
10566;DHT22;5331;48.148;16.326;2023-10-19T18:39:32;12.10;1.00
10566;DHT22;5331;48.148;16.326;2023-10-19T18:56:06;12.20;1.00
10566;DHT22;5331;48.148;16.326;2023-10-19T18:58:35;12.20;1.00
10566;DHT22;5331;48.148;16.326;2023-10-19T19:01:04;12.10;1.00
10566;DHT22;5331;48.148;16.326;2023-10-19T19:03:34;12.00;1.00
10566;DHT22;5331;48.148;16.326;2023-10-19T19:06:04;12.00;1.00
10566;DHT22;5331;48.148;16.326;2023-10-19T19:08:34;12.00;1.00
10566;DHT22;5331;48.148;16.326;2023-10-19T19:11:10;12.00;1.00
10566;DHT22;5331;48.148;16.326;2023-10-19T19:31:11;12.10;1.00
10566;DHT22;5331;48.148;16.326;2023-10-19T19:33:40;12.10;1.00
10566;DHT22;5331;48.148;16.326;2023-10-19T19:36:11;12.00;1.00
10566;DHT22;5331;48.148;16.326;2023-10-19T19:38:42;12.00;1.00
10566;DHT22;5331;48.148;16.326;2023-10-19T19:41:13;12.00;1.00
10566;DHT22;5331;48.148;16.326;2023-10-19T19:43:42;12.00;1.00
10566;DHT22;5331;48.148;16.326;2023-10-19T19:46:11;12.00;1.00
10566;DHT22;5331;48.148;16.326;2023-10-19T20:06:30;11.90;1.00
10566;DHT22;5331;48.148;16.326;2023-10-19T20:08:58;11.80;1.00
10566;DHT22;5331;48.148;16.326;2023-10-19T20:11:25;11.80;1.00
10566;DHT22;5331;48.148;16.326;2023-10-19T20:13:52;11.80;1.00
10566;DHT22;5331;48.148;16.326;2023-10-19T20:16:18;11.80;1.00
10566;DHT22;5331;48.148;16.326;2023-10-19T20:18:44;11.80;1.00
10566;DHT22;5331;48.148;16.326;2023-10-19T20:21:11;11.70;1.00
10566;DHT22;5331;48.148;16.326;2023-10-19T20:36:46;12.00;1.00
10566;DHT22;5331;48.148;16.326;2023-10-19T20:39:12;11.90;1.00
10566;DHT22;5331;48.148;16.326;2023-10-19T20:41:38;11.80;1.00
10566;DHT22;5331;48.148;16.326;2023-10-19T20:44:08;11.70;1.00
10566;DHT22;5331;48.148;16.326;2023-10-19T20:46:34;11.70;1.00
10566;DHT22;5331;48.148;16.326;2023-10-19T20:49:01;11.70;1.00
10566;DHT22;5331;48.148;16.326;2023-10-19T20:51:27;11.70;1.00
10566;DHT22;5331;48.148;16.326;2023-10-19T21:07:01;11.90;1.00
10566;DHT22;5331;48.148;16.326;2023-10-19T21:09:30;11.70;1.00
10566;DHT22;5331;48.148;16.326;2023-10-19T21:11:56;11.70;1.00
10566;DHT22;5331;48.148;16.326;2023-10-19T21:14:23;11.60;1.00
10566;DHT22;5331;48.148;16.326;2023-10-19T21:16:49;11.60;1.00
10566;DHT22;5331;48.148;16.326;2023-10-19T21:19:15;11.50;1.00
10566;DHT22;5331;48.148;16.326;2023-10-19T21:21:42;11.40;1.00
10566;DHT22;5331;48.148;16.326;2023-10-19T21:24:09;11.40;1.00
10566;DHT22;5331;48.148;16.326;2023-10-19T21:42:03;11.50;1.00
10566;DHT22;5331;48.148;16.326;2023-10-19T21:44:29;11.30;1.00
10566;DHT22;5331;48.148;16.326;2023-10-19T21:46:59;11.20;1.00
10566;DHT22;5331;48.148;16.326;2023-10-19T21:49:25;11.20;1.00
10566;DHT22;5331;48.148;16.326;2023-10-19T21:51:51;11.10;1.00
10566;DHT22;5331;48.148;16.326;2023-10-19T21:54:17;11.10;1.00
10566;DHT22;5331;48.148;16.326;2023-10-19T21:56:43;11.00;1.00
10566;DHT22;5331;48.148;16.326;2023-10-19T22:16:43;11.00;1.00
10566;DHT22;5331;48.148;16.326;2023-10-19T22:19:09;10.90;1.00
10566;DHT22;5331;48.148;16.326;2023-10-19T22:21:35;10.90;1.00
10566;DHT22;5331;48.148;16.326;2023-10-19T22:24:01;10.80;1.00
10566;DHT22;5331;48.148;16.326;2023-10-19T22:26:28;10.80;1.00
10566;DHT22;5331;48.148;16.326;2023-10-19T22:28:54;10.80;1.00
10566;DHT22;5331;48.148;16.326;2023-10-19T22:31:21;10.80;1.00
10566;DHT22;5331;48.148;16.326;2023-10-19T22:46:50;10.80;1.00
10566;DHT22;5331;48.148;16.326;2023-10-19T22:49:16;10.80;1.00
10566;DHT22;5331;48.148;16.326;2023-10-19T22:51:42;10.80;1.00
10566;DHT22;5331;48.148;16.326;2023-10-19T22:54:08;10.80;1.00
10566;DHT22;5331;48.148;16.326;2023-10-19T22:56:35;10.80;1.00
10566;DHT22;5331;48.148;16.326;2023-10-19T22:59:02;10.70;1.00
10566;DHT22;5331;48.148;16.326;2023-10-19T23:01:28;10.70;1.00
10566;DHT22;5331;48.148;16.326;2023-10-19T23:03:58;10.80;1.00
10566;DHT22;5331;48.148;16.326;2023-10-19T23:23:24;11.00;1.00
10566;DHT22;5331;48.148;16.326;2023-10-19T23:25:50;11.10;1.00
10566;DHT22;5331;48.148;16.326;2023-10-19T23:28:20;11.10;1.00
10566;DHT22;5331;48.148;16.326;2023-10-19T23:30:46;11.10;1.00
10566;DHT22;5331;48.148;16.326;2023-10-19T23:33:13;11.10;1.00
10566;DHT22;5331;48.148;16.326;2023-10-19T23:35:39;11.10;1.00
10566;DHT22;5331;48.148;16.326;2023-10-19T23:38:06;11.10;1.00
10566;DHT22;5331;48.148;16.326;2023-10-19T23:53:32;11.10;1.00
10566;DHT22;5331;48.148;16.326;2023-10-19T23:55:58;11.00;1.00
10566;DHT22;5331;48.148;16.326;2023-10-19T23:58:24;11.00;1.00
